sensor_id;sensor_type;location;lat;lon;timestamp;pressure;altitude;pressure_sealevel;temperature;humidity
47330;BME280;33060;50.178;7.570;2022-10-16T00:01:20;96730.38;;;12.90;100.00
47330;BME280;33060;50.178;7.570;2022-10-16T00:03:47;96733.03;;;12.90;100.00
47330;BME280;33060;50.178;7.570;2022-10-16T00:06:16;96727.72;;;12.90;100.00
47330;BME280;33060;50.178;7.570;2022-10-16T00:08:44;96742.06;;;12.87;100.00
47330;BME280;33060;50.178;7.570;2022-10-16T00:11:20;96735.53;;;12.91;100.00
47330;BME280;33060;50.178;7.570;2022-10-16T00:13:48;96735.16;;;12.96;100.00
47330;BME280;33060;50.178;7.570;2022-10-16T00:16:15;96743.22;;;12.94;100.00
47330;BME280;33060;50.178;7.570;2022-10-16T00:18:43;96731.53;;;12.97;100.00
47330;BME280;33060;50.178;7.570;2022-10-16T00:21:18;96720.69;;;13.00;100.00
47330;BME280;33060;50.178;7.570;2022-10-16T00:23:45;96728.63;;;13.00;100.00
47330;BME280;33060;50.178;7.570;2022-10-16T00:26:14;96727.78;;;12.99;100.00
47330;BME280;33060;50.178;7.570;2022-10-16T00:28:41;96731.69;;;12.95;100.00
47330;BME280;33060;50.178;7.570;2022-10-16T00:31:10;96735.72;;;12.99;100.00
47330;BME280;33060;50.178;7.570;2022-10-16T00:33:39;96728.63;;;13.00;100.00
47330;BME280;33060;50.178;7.570;2022-10-16T00:36:07;96735.72;;;12.99;100.00
47330;BME280;33060;50.178;7.570;2022-10-16T00:38:34;96735.84;;;12.98;100.00
47330;BME280;33060;50.178;7.570;2022-10-16T00:41:01;96744.63;;;12.98;100.00
47330;BME280;33060;50.178;7.570;2022-10-16T00:46:42;96746.19;;;13.01;100.00
47330;BME280;33060;50.178;7.570;2022-10-16T00:49:10;96764.00;;;12.99;100.00
47330;BME280;33060;50.178;7.570;2022-10-16T00:51:46;96746.91;;;13.03;100.00
47330;BME280;33060;50.178;7.570;2022-10-16T00:54:21;96754.25;;;12.99;100.00
47330;BME280;33060;50.178;7.570;2022-10-16T00:56:48;96763.16;;;12.98;100.00
47330;BME280;33060;50.178;7.570;2022-10-16T00:59:19;96760.53;;;12.98;100.00
47330;BME280;33060;50.178;7.570;2022-10-16T01:01:46;96762.59;;;12.95;100.00
47330;BME280;33060;50.178;7.570;2022-10-16T01:04:13;96754.66;;;12.95;100.00
47330;BME280;33060;50.178;7.570;2022-10-16T01:09:47;96753.22;;;12.91;100.00
47330;BME280;33060;50.178;7.570;2022-10-16T01:12:29;96745.56;;;12.88;100.00
47330;BME280;33060;50.178;7.570;2022-10-16T01:15:27;96746.75;;;12.84;100.00
47330;BME280;33060;50.178;7.570;2022-10-16T01:18:01;96764.31;;;12.85;100.00
47330;BME280;33060;50.178;7.570;2022-10-16T01:21:04;96756.84;;;12.90;100.00
47330;BME280;33060;50.178;7.570;2022-10-16T01:29:13;96766.47;;;12.91;100.00
47330;BME280;33060;50.178;7.570;2022-10-16T01:31:48;96766.72;;;12.88;100.00
47330;BME280;33060;50.178;7.570;2022-10-16T01:34:21;96766.88;;;12.86;100.00
47330;BME280;33060;50.178;7.570;2022-10-16T01:37:01;96763.09;;;12.89;100.00
47330;BME280;33060;50.178;7.570;2022-10-16T01:39:31;96765.88;;;12.87;100.00
47330;BME280;33060;50.178;7.570;2022-10-16T01:42:16;96753.50;;;12.88;100.00
47330;BME280;33060;50.178;7.570;2022-10-16T01:44:46;96761.16;;;12.91;100.00
47330;BME280;33060;50.178;7.570;2022-10-16T01:47:14;96774.13;;;12.94;100.00
47330;BME280;33060;50.178;7.570;2022-10-16T01:49:42;96760.78;;;12.95;100.00
47330;BME280;33060;50.178;7.570;2022-10-16T01:52:14;96759.69;;;12.98;100.00
47330;BME280;33060;50.178;7.570;2022-10-16T01:54:43;96773.50;;;13.01;100.00
47330;BME280;33060;50.178;7.570;2022-10-16T01:57:12;96766.53;;;13.00;100.00
47330;BME280;33060;50.178;7.570;2022-10-16T01:59:44;96767.81;;;13.06;100.00
47330;BME280;33060;50.178;7.570;2022-10-16T02:02:12;96769.50;;;13.07;100.00
47330;BME280;33060;50.178;7.570;2022-10-16T02:04:47;96776.75;;;13.05;100.00
47330;BME280;33060;50.178;7.570;2022-10-16T02:07:16;96775.75;;;13.06;100.00
47330;BME280;33060;50.178;7.570;2022-10-16T02:09:43;96770.84;;;13.01;100.00
47330;BME280;33060;50.178;7.570;2022-10-16T02:12:19;96792.50;;;13.07;100.00
47330;BME280;33060;50.178;7.570;2022-10-16T02:14:49;96805.47;;;13.10;100.00
47330;BME280;33060;50.178;7.570;2022-10-16T02:17:17;96810.38;;;13.14;100.00
47330;BME280;33060;50.178;7.570;2022-10-16T02:19:46;96798.81;;;13.15;100.00
47330;BME280;33060;50.178;7.570;2022-10-16T02:22:26;96800.31;;;13.08;100.00
47330;BME280;33060;50.178;7.570;2022-10-16T02:25:10;96804.63;;;13.09;100.00
47330;BME280;33060;50.178;7.570;2022-10-16T02:27:52;96790.22;;;13.02;100.00
47330;BME280;33060;50.178;7.570;2022-10-16T02:30:44;96799.88;;;13.03;100.00
47330;BME280;33060;50.178;7.570;2022-10-16T02:33:15;96790.63;;;12.97;100.00
47330;BME280;33060;50.178;7.570;2022-10-16T02:35:44;96775.25;;;12.91;100.00
47330;BME280;33060;50.178;7.570;2022-10-16T02:38:14;96779.97;;;12.88;100.00
47330;BME280;33060;50.178;7.570;2022-10-16T02:40:41;96783.31;;;12.90;100.00
47330;BME280;33060;50.178;7.570;2022-10-16T02:43:09;96783.81;;;12.84;100.00
47330;BME280;33060;50.178;7.570;2022-10-16T02:45:36;96779.25;;;12.86;100.00
47330;BME280;33060;50.178;7.570;2022-10-16T02:48:03;96794.41;;;12.84;100.00
47330;BME280;33060;50.178;7.570;2022-10-16T02:50:29;96804.16;;;12.83;100.00
47330;BME280;33060;50.178;7.570;2022-10-16T02:52:56;96807.63;;;12.84;100.00
47330;BME280;33060;50.178;7.570;2022-10-16T02:55:23;96755.69;;;12.83;100.00
47330;BME280;33060;50.178;7.570;2022-10-16T02:57:49;96768.72;;;12.74;100.00
47330;BME280;33060;50.178;7.570;2022-10-16T03:00:17;96762.38;;;12.66;100.00
47330;BME280;33060;50.178;7.570;2022-10-16T03:02:44;96741.84;;;12.58;100.00
47330;BME280;33060;50.178;7.570;2022-10-16T03:05:11;96749.34;;;12.53;100.00
47330;BME280;33060;50.178;7.570;2022-10-16T03:07:37;96756.56;;;12.51;100.00
47330;BME280;33060;50.178;7.570;2022-10-16T03:10:04;96755.38;;;12.44;100.00
47330;BME280;33060;50.178;7.570;2022-10-16T03:12:31;96760.06;;;12.40;100.00
47330;BME280;33060;50.178;7.570;2022-10-16T03:14:58;96759.22;;;12.40;100.00
47330;BME280;33060;50.178;7.570;2022-10-16T03:17:25;96761.16;;;12.38;100.00
47330;BME280;33060;50.178;7.570;2022-10-16T03:19:52;96762.84;;;12.39;100.00
47330;BME280;33060;50.178;7.570;2022-10-16T03:22:19;96773.56;;;12.37;100.00
47330;BME280;33060;50.178;7.570;2022-10-16T03:24:45;96786.38;;;12.42;100.00
47330;BME280;33060;50.178;7.570;2022-10-16T03:27:12;96789.91;;;12.42;100.00
47330;BME280;33060;50.178;7.570;2022-10-16T03:29:38;96794.31;;;12.42;100.00
47330;BME280;33060;50.178;7.570;2022-10-16T03:32:05;96806.47;;;12.44;100.00
47330;BME280;33060;50.178;7.570;2022-10-16T03:34:32;96803.22;;;12.41;100.00
47330;BME280;33060;50.178;7.570;2022-10-16T03:36:58;96800.97;;;12.36;100.00
47330;BME280;33060;50.178;7.570;2022-10-16T03:39:25;96795.28;;;12.41;100.00
47330;BME280;33060;50.178;7.570;2022-10-16T03:41:51;96803.84;;;12.44;100.00
47330;BME280;33060;50.178;7.570;2022-10-16T03:44:18;96801.31;;;12.43;100.00
47330;BME280;33060;50.178;7.570;2022-10-16T03:46:45;96794.22;;;12.43;100.00
47330;BME280;33060;50.178;7.570;2022-10-16T03:49:11;96802.16;;;12.43;100.00
47330;BME280;33060;50.178;7.570;2022-10-16T03:51:38;96803.00;;;12.44;100.00
47330;BME280;33060;50.178;7.570;2022-10-16T03:54:05;96800.56;;;12.52;100.00
47330;BME280;33060;50.178;7.570;2022-10-16T03:56:31;96799.47;;;12.55;100.00
47330;BME280;33060;50.178;7.570;2022-10-16T03:58:58;96802.13;;;12.55;100.00
47330;BME280;33060;50.178;7.570;2022-10-16T04:01:24;96794.75;;;12.58;100.00
47330;BME280;33060;50.178;7.570;2022-10-16T04:03:51;96787.56;;;12.60;100.00
47330;BME280;33060;50.178;7.570;2022-10-16T04:06:18;96802.47;;;12.61;100.00
47330;BME280;33060;50.178;7.570;2022-10-16T04:08:45;96804.84;;;12.64;100.00
47330;BME280;33060;50.178;7.570;2022-10-16T04:11:11;96800.53;;;12.63;100.00
47330;BME280;33060;50.178;7.570;2022-10-16T04:13:38;96804.13;;;12.62;100.00
47330;BME280;33060;50.178;7.570;2022-10-16T04:16:05;96808.72;;;12.60;100.00
47330;BME280;33060;50.178;7.570;2022-10-16T04:18:31;96816.53;;;12.62;100.00
47330;BME280;33060;50.178;7.570;2022-10-16T04:21:07;96828.41;;;12.67;100.00
47330;BME280;33060;50.178;7.570;2022-10-16T04:23:33;96816.88;;;12.68;100.00
47330;BME280;33060;50.178;7.570;2022-10-16T04:26:00;96825.38;;;12.72;100.00
47330;BME280;33060;50.178;7.570;2022-10-16T04:28:27;96833.91;;;12.76;100.00
47330;BME280;33060;50.178;7.570;2022-10-16T04:30:54;96826.94;;;12.74;100.00
47330;BME280;33060;50.178;7.570;2022-10-16T04:33:21;96835.84;;;12.73;100.00
47330;BME280;33060;50.178;7.570;2022-10-16T04:35:48;96846.28;;;12.75;100.00
47330;BME280;33060;50.178;7.570;2022-10-16T04:38:14;96835.34;;;12.80;100.00
47330;BME280;33060;50.178;7.570;2022-10-16T04:40:42;96843.72;;;12.85;100.00
47330;BME280;33060;50.178;7.570;2022-10-16T04:43:09;96851.44;;;12.88;100.00
47330;BME280;33060;50.178;7.570;2022-10-16T04:45:35;96840.38;;;12.83;100.00
47330;BME280;33060;50.178;7.570;2022-10-16T04:48:02;96841.34;;;12.82;100.00
47330;BME280;33060;50.178;7.570;2022-10-16T04:50:29;96838.69;;;12.82;100.00
47330;BME280;33060;50.178;7.570;2022-10-16T04:53:05;96837.84;;;12.81;100.00
47330;BME280;33060;50.178;7.570;2022-10-16T04:55:32;96834.50;;;12.79;100.00
47330;BME280;33060;50.178;7.570;2022-10-16T04:57:58;96838.81;;;12.80;100.00
47330;BME280;33060;50.178;7.570;2022-10-16T05:00:25;96834.75;;;12.76;100.00
47330;BME280;33060;50.178;7.570;2022-10-16T05:02:52;96839.19;;;12.76;100.00
47330;BME280;33060;50.178;7.570;2022-10-16T05:05:19;96838.50;;;12.73;100.00
47330;BME280;33060;50.178;7.570;2022-10-16T05:07:47;96849.69;;;12.77;100.00
47330;BME280;33060;50.178;7.570;2022-10-16T05:10:14;96854.84;;;12.79;100.00
47330;BME280;33060;50.178;7.570;2022-10-16T05:12:40;96845.81;;;12.81;100.00
47330;BME280;33060;50.178;7.570;2022-10-16T05:15:07;96850.00;;;12.84;100.00
47330;BME280;33060;50.178;7.570;2022-10-16T05:17:34;96858.66;;;12.86;100.00
47330;BME280;33060;50.178;7.570;2022-10-16T05:20:03;96857.69;;;12.87;100.00
47330;BME280;33060;50.178;7.570;2022-10-16T05:22:30;96855.63;;;12.90;100.00
47330;BME280;33060;50.178;7.570;2022-10-16T05:24:57;96845.88;;;12.91;100.00
47330;BME280;33060;50.178;7.570;2022-10-16T05:27:23;96840.44;;;12.92;100.00
47330;BME280;33060;50.178;7.570;2022-10-16T05:29:50;96846.16;;;12.88;100.00
47330;BME280;33060;50.178;7.570;2022-10-16T05:32:18;96848.78;;;12.88;100.00
47330;BME280;33060;50.178;7.570;2022-10-16T05:34:45;96850.59;;;12.87;100.00
47330;BME280;33060;50.178;7.570;2022-10-16T05:37:12;96858.41;;;12.89;100.00
47330;BME280;33060;50.178;7.570;2022-10-16T05:39:38;96863.00;;;12.87;100.00
47330;BME280;33060;50.178;7.570;2022-10-16T05:42:05;96862.16;;;12.86;100.00
47330;BME280;33060;50.178;7.570;2022-10-16T05:44:32;96865.38;;;12.90;100.00
47330;BME280;33060;50.178;7.570;2022-10-16T05:47:04;96876.66;;;12.92;100.00
47330;BME280;33060;50.178;7.570;2022-10-16T05:49:30;96873.66;;;12.96;100.00
47330;BME280;33060;50.178;7.570;2022-10-16T05:51:57;96873.25;;;13.01;100.00
47330;BME280;33060;50.178;7.570;2022-10-16T05:54:23;96863.41;;;13.03;100.00
47330;BME280;33060;50.178;7.570;2022-10-16T05:56:50;96860.28;;;12.98;100.00
47330;BME280;33060;50.178;7.570;2022-10-16T05:59:17;96866.44;;;12.98;100.00
47330;BME280;33060;50.178;7.570;2022-10-16T06:01:43;96873.41;;;12.99;100.00
47330;BME280;33060;50.178;7.570;2022-10-16T06:04:10;96885.66;;;13.00;100.00
47330;BME280;33060;50.178;7.570;2022-10-16T06:06:42;96880.63;;;12.97;100.00
47330;BME280;33060;50.178;7.570;2022-10-16T06:09:09;96883.16;;;12.99;100.00
47330;BME280;33060;50.178;7.570;2022-10-16T06:11:36;96875.91;;;13.01;100.00
47330;BME280;33060;50.178;7.570;2022-10-16T06:14:02;96875.78;;;13.02;100.00
47330;BME280;33060;50.178;7.570;2022-10-16T06:16:36;96874.56;;;13.07;100.00
47330;BME280;33060;50.178;7.570;2022-10-16T06:19:04;96883.84;;;13.01;100.00
47330;BME280;33060;50.178;7.570;2022-10-16T06:21:33;96894.91;;;13.06;100.00
47330;BME280;33060;50.178;7.570;2022-10-16T06:23:59;96892.00;;;13.09;100.00
47330;BME280;33060;50.178;7.570;2022-10-16T06:26:28;96883.94;;;13.11;100.00
47330;BME280;33060;50.178;7.570;2022-10-16T06:28:57;96894.66;;;13.09;100.00
47330;BME280;33060;50.178;7.570;2022-10-16T06:31:25;96899.13;;;13.09;100.00
47330;BME280;33060;50.178;7.570;2022-10-16T06:33:57;96895.38;;;13.11;100.00
47330;BME280;33060;50.178;7.570;2022-10-16T06:36:24;96903.31;;;13.11;100.00
47330;BME280;33060;50.178;7.570;2022-10-16T06:38:51;96914.50;;;13.15;100.00
47330;BME280;33060;50.178;7.570;2022-10-16T06:41:20;96918.69;;;13.17;100.00
47330;BME280;33060;50.178;7.570;2022-10-16T06:43:47;96922.94;;;13.20;100.00
47330;BME280;33060;50.178;7.570;2022-10-16T06:46:17;96928.84;;;13.23;100.00
47330;BME280;33060;50.178;7.570;2022-10-16T06:48:44;96932.19;;;13.25;100.00
47330;BME280;33060;50.178;7.570;2022-10-16T06:51:18;96939.63;;;13.32;100.00
47330;BME280;33060;50.178;7.570;2022-10-16T06:53:47;96937.81;;;13.32;100.00
47330;BME280;33060;50.178;7.570;2022-10-16T06:56:29;96953.59;;;13.34;100.00
47330;BME280;33060;50.178;7.570;2022-10-16T06:58:58;96956.94;;;13.36;100.00
47330;BME280;33060;50.178;7.570;2022-10-16T07:01:24;96964.88;;;13.36;100.00
47330;BME280;33060;50.178;7.570;2022-10-16T07:03:52;96960.91;;;13.41;100.00
47330;BME280;33060;50.178;7.570;2022-10-16T07:06:21;96968.34;;;13.47;100.00
47330;BME280;33060;50.178;7.570;2022-10-16T07:08:48;96973.03;;;13.44;100.00
47330;BME280;33060;50.178;7.570;2022-10-16T07:11:18;96982.16;;;13.51;100.00
47330;BME280;33060;50.178;7.570;2022-10-16T07:13:45;96990.00;;;13.52;100.00
47330;BME280;33060;50.178;7.570;2022-10-16T07:16:23;96983.97;;;13.50;100.00
47330;BME280;33060;50.178;7.570;2022-10-16T07:18:50;96986.63;;;13.50;100.00
47330;BME280;33060;50.178;7.570;2022-10-16T07:21:21;96985.41;;;13.54;100.00
47330;BME280;33060;50.178;7.570;2022-10-16T07:23:59;96986.84;;;13.58;100.00
47330;BME280;33060;50.178;7.570;2022-10-16T07:26:29;97001.44;;;13.53;100.00
47330;BME280;33060;50.178;7.570;2022-10-16T07:28:57;96996.66;;;13.47;100.00
47330;BME280;33060;50.178;7.570;2022-10-16T07:31:24;97000.72;;;13.51;100.00
47330;BME280;33060;50.178;7.570;2022-10-16T07:33:51;97003.44;;;13.61;100.00
47330;BME280;33060;50.178;7.570;2022-10-16T07:36:19;97013.06;;;13.62;100.00
47330;BME280;33060;50.178;7.570;2022-10-16T07:38:46;97019.22;;;13.62;100.00
47330;BME280;33060;50.178;7.570;2022-10-16T07:41:15;97021.94;;;13.72;100.00
47330;BME280;33060;50.178;7.570;2022-10-16T07:43:46;97023.25;;;13.77;100.00
47330;BME280;33060;50.178;7.570;2022-10-16T07:46:13;97030.63;;;13.74;100.00
47330;BME280;33060;50.178;7.570;2022-10-16T07:48:40;97029.44;;;13.67;100.00
47330;BME280;33060;50.178;7.570;2022-10-16T07:51:08;97045.69;;;13.73;100.00
47330;BME280;33060;50.178;7.570;2022-10-16T07:53:35;97056.31;;;13.73;100.00
47330;BME280;33060;50.178;7.570;2022-10-16T07:56:05;97044.78;;;13.84;100.00
47330;BME280;33060;50.178;7.570;2022-10-16T07:58:33;97034.53;;;13.91;100.00
47330;BME280;33060;50.178;7.570;2022-10-16T08:01:04;97039.91;;;14.00;100.00
47330;BME280;33060;50.178;7.570;2022-10-16T08:03:31;97051.34;;;14.01;100.00
47330;BME280;33060;50.178;7.570;2022-10-16T08:05:59;97059.22;;;14.12;100.00
47330;BME280;33060;50.178;7.570;2022-10-16T08:08:26;97060.66;;;14.16;100.00
47330;BME280;33060;50.178;7.570;2022-10-16T08:10:53;97057.41;;;14.12;100.00
47330;BME280;33060;50.178;7.570;2022-10-16T08:13:20;97060.66;;;14.16;100.00
47330;BME280;33060;50.178;7.570;2022-10-16T08:15:47;97054.19;;;14.09;100.00
47330;BME280;33060;50.178;7.570;2022-10-16T08:18:15;97049.66;;;14.21;100.00
47330;BME280;33060;50.178;7.570;2022-10-16T08:20:43;97061.22;;;14.40;100.00
47330;BME280;33060;50.178;7.570;2022-10-16T08:23:11;97061.44;;;14.49;100.00
47330;BME280;33060;50.178;7.570;2022-10-16T08:25:38;97071.69;;;14.42;100.00
47330;BME280;33060;50.178;7.570;2022-10-16T08:28:06;97062.91;;;14.41;100.00
47330;BME280;33060;50.178;7.570;2022-10-16T08:30:33;97075.94;;;14.45;100.00
47330;BME280;33060;50.178;7.570;2022-10-16T08:33:01;97082.09;;;14.45;100.00
47330;BME280;33060;50.178;7.570;2022-10-16T08:35:27;97085.66;;;14.55;100.00
47330;BME280;33060;50.178;7.570;2022-10-16T08:37:54;97085.97;;;14.62;100.00
47330;BME280;33060;50.178;7.570;2022-10-16T08:40:27;97091.41;;;14.60;100.00
47330;BME280;33060;50.178;7.570;2022-10-16T08:51:12;97094.63;;;14.22;100.00
47330;BME280;33060;50.178;7.570;2022-10-16T08:53:49;97094.50;;;14.24;100.00
47330;BME280;33060;50.178;7.570;2022-10-16T08:56:17;97102.34;;;14.25;100.00
47330;BME280;33060;50.178;7.570;2022-10-16T08:58:45;97100.56;;;14.14;100.00
47330;BME280;33060;50.178;7.570;2022-10-16T09:01:21;97095.78;;;14.08;100.00
47330;BME280;33060;50.178;7.570;2022-10-16T09:12:02;97114.66;;;14.47;100.00
47330;BME280;33060;50.178;7.570;2022-10-16T09:14:44;97116.72;;;14.64;100.00
47330;BME280;33060;50.178;7.570;2022-10-16T09:19:46;97133.47;;;14.86;100.00
47330;BME280;33060;50.178;7.570;2022-10-16T09:22:17;97134.63;;;15.23;100.00
47330;BME280;33060;50.178;7.570;2022-10-16T09:24:44;97129.22;;;15.54;100.00
47330;BME280;33060;50.178;7.570;2022-10-16T09:27:13;97138.31;;;15.92;98.44
47330;BME280;33060;50.178;7.570;2022-10-16T09:29:40;97132.69;;;16.43;94.65
47330;BME280;33060;50.178;7.570;2022-10-16T09:32:12;97138.97;;;16.81;90.85
47330;BME280;33060;50.178;7.570;2022-10-16T09:34:54;97136.16;;;17.29;89.50
47330;BME280;33060;50.178;7.570;2022-10-16T09:37:23;97142.75;;;17.52;87.79
47330;BME280;33060;50.178;7.570;2022-10-16T09:39:53;97144.16;;;16.82;90.91
47330;BME280;33060;50.178;7.570;2022-10-16T09:42:23;97140.41;;;16.36;94.21
47330;BME280;33060;50.178;7.570;2022-10-16T09:44:51;97140.81;;;16.32;95.82
47330;BME280;33060;50.178;7.570;2022-10-16T09:47:22;97145.31;;;16.31;95.70
47330;BME280;33060;50.178;7.570;2022-10-16T09:50:00;97148.13;;;16.69;92.44
47330;BME280;33060;50.178;7.570;2022-10-16T09:52:32;97147.66;;;16.63;92.17
47330;BME280;33060;50.178;7.570;2022-10-16T09:55:02;97145.16;;;16.72;91.82
47330;BME280;33060;50.178;7.570;2022-10-16T09:57:29;97148.34;;;16.75;91.40
47330;BME280;33060;50.178;7.570;2022-10-16T09:59:58;97148.50;;;16.74;90.05
47330;BME280;33060;50.178;7.570;2022-10-16T10:02:30;97137.13;;;16.81;88.36
47330;BME280;33060;50.178;7.570;2022-10-16T10:04:58;97146.00;;;16.72;90.28
47330;BME280;33060;50.178;7.570;2022-10-16T10:07:32;97140.09;;;16.59;90.64
47330;BME280;33060;50.178;7.570;2022-10-16T10:10:03;97145.31;;;16.51;91.24
47330;BME280;33060;50.178;7.570;2022-10-16T10:12:31;97135.34;;;16.62;91.10
47330;BME280;33060;50.178;7.570;2022-10-16T10:15:06;97138.38;;;16.67;90.99
47330;BME280;33060;50.178;7.570;2022-10-16T10:17:33;97137.88;;;16.45;91.44
47330;BME280;33060;50.178;7.570;2022-10-16T10:20:18;97140.81;;;16.32;90.12
47330;BME280;33060;50.178;7.570;2022-10-16T10:22:47;97141.66;;;16.32;91.67
47330;BME280;33060;50.178;7.570;2022-10-16T10:33:34;97129.47;;;17.15;84.90
47330;BME280;33060;50.178;7.570;2022-10-16T10:39:33;97125.78;;;16.79;88.46
47330;BME280;33060;50.178;7.570;2022-10-16T10:50:43;97137.25;;;17.27;83.53
47330;BME280;33060;50.178;7.570;2022-10-16T10:53:27;97124.59;;;17.29;82.93
47330;BME280;33060;50.178;7.570;2022-10-16T10:58:57;97125.19;;;17.32;81.63
47330;BME280;33060;50.178;7.570;2022-10-16T11:01:32;97125.75;;;17.26;82.59
47330;BME280;33060;50.178;7.570;2022-10-16T11:07:02;97127.31;;;17.56;79.76
47330;BME280;33060;50.178;7.570;2022-10-16T11:09:47;97133.69;;;17.73;79.76
47330;BME280;33060;50.178;7.570;2022-10-16T11:12:18;97132.88;;;18.08;78.87
47330;BME280;33060;50.178;7.570;2022-10-16T11:18:06;97149.81;;;17.44;81.77
47330;BME280;33060;50.178;7.570;2022-10-16T11:20:42;97159.31;;;17.19;82.93
47330;BME280;33060;50.178;7.570;2022-10-16T11:23:18;97158.88;;;17.23;83.85
47330;BME280;33060;50.178;7.570;2022-10-16T11:25:48;97161.38;;;17.62;81.92
47330;BME280;33060;50.178;7.570;2022-10-16T11:31:36;97153.44;;;17.80;81.94
47330;BME280;33060;50.178;7.570;2022-10-16T11:34:52;97147.44;;;18.14;80.40
47330;BME280;33060;50.178;7.570;2022-10-16T11:37:17;97138.22;;;18.44;79.44
47330;BME280;33060;50.178;7.570;2022-10-16T11:39:45;97133.47;;;18.38;79.20
47330;BME280;33060;50.178;7.570;2022-10-16T11:42:20;97135.16;;;18.21;79.73
47330;BME280;33060;50.178;7.570;2022-10-16T11:45:03;97134.31;;;18.20;79.14
47330;BME280;33060;50.178;7.570;2022-10-16T11:47:44;97128.16;;;18.20;80.54
47330;BME280;33060;50.178;7.570;2022-10-16T11:50:38;97135.41;;;18.10;80.03
47330;BME280;33060;50.178;7.570;2022-10-16T11:56:05;97118.97;;;18.22;80.38
47330;BME280;33060;50.178;7.570;2022-10-16T11:58:41;97132.06;;;18.25;79.90
47330;BME280;33060;50.178;7.570;2022-10-16T12:01:26;97135.00;;;18.40;80.61
47330;BME280;33060;50.178;7.570;2022-10-16T12:04:16;97136.78;;;18.57;78.13
47330;BME280;33060;50.178;7.570;2022-10-16T12:06:52;97142.31;;;18.74;78.79
47330;BME280;33060;50.178;7.570;2022-10-16T12:09:25;97132.94;;;18.52;77.85
47330;BME280;33060;50.178;7.570;2022-10-16T12:11:52;97131.09;;;18.52;79.33
47330;BME280;33060;50.178;7.570;2022-10-16T12:17:22;97145.19;;;18.80;78.65
47330;BME280;33060;50.178;7.570;2022-10-16T12:25:21;97160.88;;;18.40;81.30
47330;BME280;33060;50.178;7.570;2022-10-16T12:30:40;97165.75;;;18.80;78.40
47330;BME280;33060;50.178;7.570;2022-10-16T12:33:32;97174.31;;;18.30;80.00
47330;BME280;33060;50.178;7.570;2022-10-16T12:36:01;97180.84;;;18.00;81.86
47330;BME280;33060;50.178;7.570;2022-10-16T12:41:11;97183.25;;;17.66;83.89
47330;BME280;33060;50.178;7.570;2022-10-16T12:43:46;97177.63;;;17.69;84.79
47330;BME280;33060;50.178;7.570;2022-10-16T12:48:42;97180.75;;;17.64;84.27
47330;BME280;33060;50.178;7.570;2022-10-16T12:54:16;97167.16;;;17.58;86.35
47330;BME280;33060;50.178;7.570;2022-10-16T12:56:56;97166.00;;;17.70;86.78
47330;BME280;33060;50.178;7.570;2022-10-16T13:02:54;97153.34;;;17.72;85.96
47330;BME280;33060;50.178;7.570;2022-10-16T13:05:42;97144.59;;;17.79;85.13
47330;BME280;33060;50.178;7.570;2022-10-16T13:08:25;97156.72;;;17.74;85.65
47330;BME280;33060;50.178;7.570;2022-10-16T13:17:11;97156.91;;;18.26;81.67
47330;BME280;33060;50.178;7.570;2022-10-16T13:22:34;97161.19;;;18.19;82.04
47330;BME280;33060;50.178;7.570;2022-10-16T13:30:26;97157.53;;;18.20;82.88
47330;BME280;33060;50.178;7.570;2022-10-16T13:35:54;97161.03;;;18.20;82.65
47330;BME280;33060;50.178;7.570;2022-10-16T13:38:26;97171.84;;;18.01;84.07
47330;BME280;33060;50.178;7.570;2022-10-16T13:41:03;97181.13;;;17.97;84.58
47330;BME280;33060;50.178;7.570;2022-10-16T13:43:43;97173.53;;;18.02;84.44
47330;BME280;33060;50.178;7.570;2022-10-16T13:46:17;97175.34;;;18.01;84.18
47330;BME280;33060;50.178;7.570;2022-10-16T13:48:45;97180.13;;;17.98;84.81
47330;BME280;33060;50.178;7.570;2022-10-16T13:51:22;97185.47;;;17.98;85.56
47330;BME280;33060;50.178;7.570;2022-10-16T13:53:55;97179.47;;;17.96;85.48
47330;BME280;33060;50.178;7.570;2022-10-16T13:56:28;97175.44;;;17.92;83.68
47330;BME280;33060;50.178;7.570;2022-10-16T13:59:40;97173.81;;;17.81;84.09
47330;BME280;33060;50.178;7.570;2022-10-16T14:02:35;97170.06;;;17.74;84.93
47330;BME280;33060;50.178;7.570;2022-10-16T14:05:02;97178.59;;;17.77;84.86
47330;BME280;33060;50.178;7.570;2022-10-16T14:07:32;97177.91;;;17.75;85.81
47330;BME280;33060;50.178;7.570;2022-10-16T14:10:05;97175.69;;;17.61;84.91
47330;BME280;33060;50.178;7.570;2022-10-16T14:12:34;97173.34;;;17.58;85.21
47330;BME280;33060;50.178;7.570;2022-10-16T14:15:01;97177.25;;;17.64;84.95
47330;BME280;33060;50.178;7.570;2022-10-16T14:17:33;97170.09;;;17.64;85.30
47330;BME280;33060;50.178;7.570;2022-10-16T14:20:04;97168.66;;;17.70;85.47
47330;BME280;33060;50.178;7.570;2022-10-16T14:22:35;97166.34;;;17.85;86.27
47330;BME280;33060;50.178;7.570;2022-10-16T14:30:54;97164.50;;;17.85;85.38
47330;BME280;33060;50.178;7.570;2022-10-16T14:36:04;97166.66;;;17.72;84.71
47330;BME280;33060;50.178;7.570;2022-10-16T14:38:32;97177.50;;;17.70;84.92
47330;BME280;33060;50.178;7.570;2022-10-16T14:41:00;97170.34;;;17.71;85.71
47330;BME280;33060;50.178;7.570;2022-10-16T14:43:35;97176.50;;;17.71;85.96
47330;BME280;33060;50.178;7.570;2022-10-16T14:46:14;97179.44;;;17.68;86.08
47330;BME280;33060;50.178;7.570;2022-10-16T14:48:43;97175.09;;;17.67;86.16
47330;BME280;33060;50.178;7.570;2022-10-16T14:51:16;97170.75;;;17.66;86.48
47330;BME280;33060;50.178;7.570;2022-10-16T14:53:43;97170.75;;;17.66;86.55
47330;BME280;33060;50.178;7.570;2022-10-16T14:56:17;97169.38;;;17.62;86.19
47330;BME280;33060;50.178;7.570;2022-10-16T14:58:44;97182.16;;;17.59;86.71
47330;BME280;33060;50.178;7.570;2022-10-16T15:01:11;97182.16;;;17.59;86.99
47330;BME280;33060;50.178;7.570;2022-10-16T15:03:38;97185.97;;;17.56;87.51
47330;BME280;33060;50.178;7.570;2022-10-16T15:06:13;97190.47;;;17.56;89.22